Time;durP1;ratioP1;P1;durP2;ratioP2;P2;SDS_P1;SDS_P2;PMS_P1;PMS_P2;Temp;Humidity;BMP_temperature;BMP_pressure;BME280_temperature;BME280_humidity;BME280_pressure;Samples;Min_cycle;Max_cycle;Signal;HPM_P1;HPM_P2
2022/02/16 00:00:07;;;;;;;19.58;10.98;;;3.80;99.90;;;;;;5109750;28;20151;-74
2022/02/16 00:02:33;;;;;;;21.48;11.80;;;3.80;99.90;;;;;;5109505;28;20214;-74
2022/02/16 00:04:59;;;;;;;18.30;11.68;;;3.80;99.90;;;;;;5109661;28;20193;-74
2022/02/16 00:07:25;;;;;;;20.40;11.70;;;3.80;99.90;;;;;;5109676;28;20620;-74
2022/02/16 00:09:50;;;;;;;17.02;11.35;;;3.80;99.90;;;;;;5109684;28;20159;-74
2022/02/16 00:12:16;;;;;;;15.93;9.77;;;3.70;99.90;;;;;;5109544;28;20195;-74
2022/02/16 00:14:42;;;;;;;18.98;11.27;;;3.70;99.90;;;;;;5109546;28;20195;-74
2022/02/16 00:17:08;;;;;;;20.27;12.60;;;3.80;99.90;;;;;;5109704;28;20654;-74
2022/02/16 00:19:34;;;;;;;18.77;11.65;;;3.80;99.90;;;;;;5109621;28;20231;-74
2022/02/16 00:22:00;;;;;;;23.60;12.55;;;3.80;99.90;;;;;;5108200;28;20199;-74
2022/02/16 00:24:26;;;;;;;20.10;11.10;;;3.70;99.90;;;;;;5109483;28;20215;-74
2022/02/16 00:26:52;;;;;;;17.85;11.60;;;3.70;99.90;;;;;;5078566;28;20606;-74
2022/02/16 00:29:18;;;;;;;20.98;11.48;;;3.60;99.90;;;;;;5069179;28;20161;-74
2022/02/16 00:31:44;;;;;;;22.92;11.95;;;3.60;99.90;;;;;;5068894;28;20252;-74
2022/02/16 00:34:11;;;;;;;16.58;10.98;;;3.50;99.90;;;;;;5075961;28;20175;-74
2022/02/16 00:36:37;;;;;;;19.67;10.95;;;3.50;99.90;;;;;;5086560;28;20191;-74
2022/02/16 00:39:03;;;;;;;16.00;10.63;;;3.50;99.90;;;;;;5089274;28;20566;-74
2022/02/16 00:41:30;;;;;;;18.58;10.30;;;3.50;99.90;;;;;;5089083;28;20195;-74
2022/02/16 00:43:56;;;;;;;16.73;10.30;;;3.50;99.90;;;;;;5089027;28;20156;-74
2022/02/16 00:46:22;;;;;;;21.02;11.65;;;3.50;99.90;;;;;;5092518;28;20648;-74
2022/02/16 00:48:48;;;;;;;20.77;12.90;;;3.50;99.90;;;;;;5093053;28;20170;-74
2022/02/16 00:51:13;;;;;;;24.83;13.13;;;3.50;99.90;;;;;;5093117;28;20172;-74
2022/02/16 00:53:39;;;;;;;23.02;11.65;;;3.50;99.90;;;;;;5093006;28;20155;-74
2022/02/16 00:56:05;;;;;;;17.25;10.23;;;3.50;99.90;;;;;;5092901;28;20198;-74
2022/02/16 00:58:31;;;;;;;21.70;11.05;;;3.50;99.90;;;;;;5091555;28;20168;-75
2022/02/16 01:00:57;;;;;;;19.30;11.20;;;3.50;99.90;;;;;;5092935;28;20179;-75
2022/02/16 01:03:23;;;;;;;17.55;11.15;;;3.50;99.90;;;;;;5092546;28;20223;-74
2022/02/16 01:05:49;;;;;;;21.27;12.85;;;3.50;99.90;;;;;;5084989;28;20184;-74
2022/02/16 01:08:15;;;;;;;21.58;12.77;;;3.40;99.90;;;;;;5072641;28;20532;-74
2022/02/16 01:10:42;;;;;;;19.38;12.82;;;3.40;99.90;;;;;;5072580;28;20194;-74
2022/02/16 01:13:09;;;;;;;19.05;11.52;;;3.40;99.90;;;;;;5072535;28;20192;-74
2022/02/16 01:15:35;;;;;;;23.77;13.38;;;3.40;99.90;;;;;;5072434;28;20189;-74
2022/02/16 01:18:02;;;;;;;18.92;12.10;;;3.40;99.90;;;;;;5072527;28;20181;-74
2022/02/16 01:20:28;;;;;;;19.17;11.95;;;3.40;99.90;;;;;;5072509;28;20208;-74
2022/02/16 01:22:53;;;;;;;22.27;12.57;;;3.40;99.90;;;;;;5072262;28;20189;-74
2022/02/16 01:25:19;;;;;;;20.75;11.60;;;3.40;99.90;;;;;;5072393;28;20168;-74
2022/02/16 01:27:46;;;;;;;24.95;11.27;;;3.40;99.90;;;;;;5072394;28;20189;-75
2022/02/16 01:30:12;;;;;;;18.05;11.25;;;3.40;99.90;;;;;;5072281;28;20161;-75
2022/02/16 01:32:38;;;;;;;19.35;11.70;;;3.40;99.90;;;;;;5072059;28;20200;-75
2022/02/16 01:35:05;;;;;;;21.80;11.55;;;3.40;99.90;;;;;;5072131;28;20192;-75
2022/02/16 01:37:31;;;;;;;17.52;10.35;;;3.30;99.90;;;;;;5072174;28;20191;-74
2022/02/16 01:39:57;;;;;;;19.48;12.57;;;3.30;99.90;;;;;;5070844;28;20165;-75
2022/02/16 01:42:23;;;;;;;19.70;11.05;;;3.30;99.90;;;;;;5071952;28;20188;-76
2022/02/16 01:44:50;;;;;;;20.27;11.45;;;3.40;99.90;;;;;;5072058;28;20164;-74
2022/02/16 01:47:16;;;;;;;18.83;11.00;;;3.40;99.90;;;;;;5071864;28;20156;-75
2022/02/16 01:49:44;;;;;;;26.75;12.00;;;3.40;99.90;;;;;;5072004;28;20187;-75
2022/02/16 01:52:12;;;;;;;19.70;11.10;;;3.30;99.90;;;;;;5071920;28;20188;-75
2022/02/16 01:54:38;;;;;;;20.02;11.82;;;3.30;99.90;;;;;;5071699;28;20185;-75
2022/02/16 01:57:05;;;;;;;20.25;10.85;;;3.30;99.90;;;;;;5070572;28;20157;-75
2022/02/16 01:59:33;;;;;;;21.95;12.02;;;3.30;99.90;;;;;;5071705;28;20153;-74
2022/02/16 02:01:59;;;;;;;20.42;11.60;;;3.30;99.90;;;;;;5071402;28;20199;-75
2022/02/16 02:04:25;;;;;;;22.35;12.55;;;3.20;99.90;;;;;;5071809;28;20216;-75
2022/02/16 02:06:51;;;;;;;24.52;11.15;;;3.20;99.90;;;;;;5071590;28;20221;-75
2022/02/16 02:09:17;;;;;;;21.92;11.88;;;3.20;99.90;;;;;;5071507;28;20161;-75
2022/02/16 02:11:43;;;;;;;20.73;11.18;;;3.20;99.90;;;;;;5071366;28;20188;-75
2022/02/16 02:14:10;;;;;;;19.35;11.15;;;3.20;99.90;;;;;;5071421;28;20153;-75
2022/02/16 02:16:38;;;;;;;24.88;13.52;;;3.20;99.90;;;;;;5071282;28;20574;-75
2022/02/16 02:19:05;;;;;;;18.83;11.70;;;3.20;99.90;;;;;;5071346;28;20149;-75
2022/02/16 02:21:31;;;;;;;24.00;12.60;;;3.20;99.90;;;;;;5071135;28;20188;-74
2022/02/16 02:23:58;;;;;;;25.58;13.13;;;3.30;99.90;;;;;;5071392;28;20156;-74
2022/02/16 02:26:24;;;;;;;21.00;11.77;;;3.40;99.90;;;;;;5071089;28;20157;-73
2022/02/16 02:28:51;;;;;;;20.45;12.85;;;3.30;99.90;;;;;;5071172;28;20168;-74
2022/02/16 02:31:31;;;;;;;26.77;13.30;;;3.20;99.90;;;;;;5070399;28;20216;-73
2022/02/16 02:33:58;;;;;;;20.88;12.48;;;3.20;99.90;;;;;;5071004;28;20252;-74
2022/02/16 02:36:24;;;;;;;24.63;12.95;;;3.20;99.90;;;;;;5069793;28;20207;-75
2022/02/16 02:38:50;;;;;;;21.30;11.85;;;3.20;99.90;;;;;;5070841;28;20192;-75
2022/02/16 02:41:17;;;;;;;21.30;12.48;;;3.20;99.90;;;;;;5070455;28;20176;-74
2022/02/16 02:43:46;;;;;;;27.63;13.93;;;3.20;99.90;;;;;;5070318;28;20214;-75
2022/02/16 02:46:14;;;;;;;21.65;11.23;;;3.20;99.90;;;;;;5069818;28;20263;-74
2022/02/16 02:48:40;;;;;;;23.42;12.65;;;3.20;99.90;;;;;;5070902;28;20187;-74
2022/02/16 02:51:06;;;;;;;19.92;11.15;;;3.20;99.90;;;;;;5070714;28;20160;-75
2022/02/16 02:53:32;;;;;;;20.08;11.77;;;3.20;99.90;;;;;;5070640;28;20161;-75
2022/02/16 02:55:58;;;;;;;21.17;11.40;;;3.20;99.90;;;;;;5070619;28;20192;-75
2022/02/16 02:58:23;;;;;;;15.68;10.05;;;3.10;99.90;;;;;;5070557;28;20191;-75
2022/02/16 03:00:49;;;;;;;19.25;10.38;;;3.10;99.90;;;;;;5070539;28;20153;-75
2022/02/16 03:03:15;;;;;;;19.27;10.60;;;3.10;99.90;;;;;;5070206;28;20232;-75
2022/02/16 03:05:41;;;;;;;17.80;10.05;;;3.10;99.90;;;;;;5070401;28;20164;-75
2022/02/16 03:08:07;;;;;;;16.67;10.05;;;3.10;99.90;;;;;;5070192;28;20224;-75
2022/02/16 03:10:33;;;;;;;23.38;10.95;;;3.10;99.90;;;;;;5069108;28;20176;-74
2022/02/16 03:12:59;;;;;;;20.52;10.77;;;3.20;99.90;;;;;;5070224;28;20200;-74
2022/02/16 03:15:25;;;;;;;20.40;11.50;;;3.20;99.90;;;;;;5070110;28;20214;-74
2022/02/16 03:17:52;;;;;;;18.27;10.55;;;3.20;99.90;;;;;;5070376;28;20153;-75
2022/02/16 03:20:18;;;;;;;22.05;10.38;;;3.20;99.90;;;;;;5070283;28;20218;-75
2022/02/16 03:22:43;;;;;;;19.88;10.38;;;3.10;99.90;;;;;;5070043;28;20193;-75
2022/02/16 03:25:11;;;;;;;19.35;10.60;;;3.10;99.90;;;;;;5070106;28;20544;-75
2022/02/16 03:27:38;;;;;;;23.52;12.25;;;3.10;99.90;;;;;;5069990;28;20161;-74
2022/02/16 03:30:08;;;;;;;23.38;11.77;;;3.10;99.90;;;;;;5069973;28;20188;-74
2022/02/16 03:32:35;;;;;;;23.33;12.13;;;3.10;99.90;;;;;;5069816;28;20188;-74
2022/02/16 03:35:02;;;;;;;20.65;11.40;;;3.10;99.90;;;;;;5069781;28;20184;-74
2022/02/16 03:37:28;;;;;;;25.67;13.10;;;3.20;99.90;;;;;;5069860;28;20157;-74
2022/02/16 03:39:54;;;;;;;23.73;13.20;;;3.20;99.90;;;;;;5069779;28;20172;-73
2022/02/16 03:42:20;;;;;;;24.90;13.32;;;3.10;99.90;;;;;;5069516;28;20188;-74
2022/02/16 03:44:46;;;;;;;19.92;11.25;;;3.10;99.90;;;;;;5069596;28;20216;-74
2022/02/16 03:47:12;;;;;;;25.38;11.90;;;3.20;99.90;;;;;;5069696;28;20210;-74
2022/02/16 03:49:38;;;;;;;29.25;12.68;;;3.20;99.90;;;;;;5069689;28;20172;-74
2022/02/16 03:52:04;;;;;;;30.95;14.25;;;3.20;99.90;;;;;;5068382;28;20196;-74
2022/02/16 03:54:31;;;;;;;21.27;11.20;;;3.20;99.90;;;;;;5069452;28;20219;-74
2022/02/16 03:56:56;;;;;;;21.60;11.30;;;3.20;99.90;;;;;;5069563;28;20146;-74
2022/02/16 03:59:22;;;;;;;24.63;14.95;;;3.10;99.90;;;;;;5069417;28;20157;-73
2022/02/16 04:01:48;;;;;;;33.55;14.57;;;3.10;99.90;;;;;;5069346;28;20184;-74
2022/02/16 04:04:14;;;;;;;28.30;14.50;;;3.10;99.90;;;;;;5069117;28;20601;-73
2022/02/16 04:06:40;;;;;;;22.90;12.65;;;3.10;99.90;;;;;;5069159;28;20160;-73
2022/02/16 04:09:06;;;;;;;24.58;12.13;;;3.10;99.90;;;;;;5069360;28;20168;-73
2022/02/16 04:11:32;;;;;;;22.40;11.10;;;3.10;99.90;;;;;;5067888;28;20192;-73
2022/02/16 04:13:58;;;;;;;23.10;11.27;;;3.10;99.90;;;;;;5069269;28;20164;-74
2022/02/16 04:16:24;;;;;;;21.60;11.80;;;3.10;99.90;;;;;;5069131;28;20248;-74
2022/02/16 04:18:50;;;;;;;17.70;11.13;;;3.10;99.90;;;;;;5068933;28;20157;-74
2022/02/16 04:21:17;;;;;;;20.23;11.68;;;3.10;99.90;;;;;;5068635;28;20157;-74
2022/02/16 04:23:43;;;;;;;26.83;10.68;;;3.00;99.90;;;;;;5067835;28;20179;-74
2022/02/16 04:26:10;;;;;;;23.02;12.10;;;3.10;99.90;;;;;;5069166;28;20161;-74
2022/02/16 04:28:36;;;;;;;25.65;12.20;;;3.10;99.90;;;;;;5069069;28;20184;-74
2022/02/16 04:31:02;;;;;;;31.13;13.23;;;3.10;99.90;;;;;;5069038;28;20248;-74
2022/02/16 04:33:28;;;;;;;24.02;13.35;;;3.10;99.90;;;;;;5069018;28;20210;-74
2022/02/16 04:35:54;;;;;;;25.75;12.35;;;3.10;99.90;;;;;;5069039;28;20193;-74
2022/02/16 04:38:21;;;;;;;25.42;12.23;;;3.00;99.90;;;;;;5069025;28;20218;-74
2022/02/16 04:40:47;;;;;;;19.08;11.63;;;3.00;99.90;;;;;;5069046;28;20585;-68
2022/02/16 04:43:13;;;;;;;27.58;12.90;;;2.90;99.90;;;;;;5067562;28;20223;-68
2022/02/16 04:45:39;;;;;;;22.38;12.15;;;2.80;99.90;;;;;;5068934;28;20521;-68
2022/02/16 04:48:06;;;;;;;19.25;10.70;;;2.80;99.90;;;;;;5068795;28;20192;-68
2022/02/16 04:50:34;;;;;;;24.60;11.15;;;2.60;99.90;;;;;;5068802;28;20164;-68
2022/02/16 04:52:59;;;;;;;22.08;10.60;;;2.50;99.90;;;;;;5068760;28;20189;-68
2022/02/16 04:55:27;;;;;;;19.35;9.85;;;2.40;99.90;;;;;;5068709;28;20192;-69
2022/02/16 04:57:54;;;;;;;21.00;10.35;;;2.30;99.90;;;;;;5068702;28;20157;-68
2022/02/16 05:00:21;;;;;;;20.10;10.90;;;2.20;99.90;;;;;;5068610;28;20183;-68
2022/02/16 05:02:47;;;;;;;18.40;9.82;;;2.10;99.90;;;;;;5068340;28;20760;-68
2022/02/16 05:05:13;;;;;;;19.88;9.45;;;2.00;99.90;;;;;;5068648;28;20184;-68
2022/02/16 05:07:39;;;;;;;18.30;9.80;;;2.00;99.90;;;;;;5068740;28;20160;-69
2022/02/16 05:10:06;;;;;;;15.52;10.10;;;2.00;99.90;;;;;;5068534;28;20157;-68
2022/02/16 05:12:33;;;;;;;14.65;9.10;;;2.00;99.90;;;;;;5068639;28;20196;-68
2022/02/16 05:15:02;;;;;;;15.68;9.45;;;1.80;99.90;;;;;;5068487;28;20718;-68
2022/02/16 05:17:28;;;;;;;14.52;8.68;;;1.70;99.90;;;;;;5068611;28;20243;-68
2022/02/16 05:19:55;;;;;;;17.55;9.13;;;1.60;99.90;;;;;;5068418;28;20157;-68
2022/02/16 05:22:22;;;;;;;18.00;10.52;;;1.50;99.90;;;;;;5068423;28;20189;-68
2022/02/16 05:24:48;;;;;;;14.27;8.50;;;1.40;99.90;;;;;;5068600;28;20161;-68
2022/02/16 05:27:15;;;;;;;16.63;7.70;;;1.30;99.90;;;;;;5068413;28;20167;-68
2022/02/16 05:29:42;;;;;;;18.23;8.98;;;1.30;99.90;;;;;;5068462;28;20177;-68
2022/02/16 05:32:08;;;;;;;14.02;7.68;;;1.20;99.90;;;;;;5071211;28;20250;-68
2022/02/16 05:34:34;;;;;;;13.20;8.48;;;1.20;99.90;;;;;;5072105;28;20161;-69
2022/02/16 05:37:00;;;;;;;13.45;9.00;;;1.10;99.90;;;;;;5070733;28;20168;-68
2022/02/16 05:39:26;;;;;;;19.25;10.30;;;0.90;99.90;;;;;;5071686;28;20160;-68
2022/02/16 05:41:52;;;;;;;12.48;8.40;;;1.00;99.90;;;;;;5071978;28;20250;-68
2022/02/16 05:44:19;;;;;;;16.92;8.85;;;1.00;99.90;;;;;;5071798;28;20196;-69
2022/02/16 05:46:44;;;;;;;15.57;8.88;;;0.90;99.90;;;;;;5071743;28;20186;-68
2022/02/16 05:49:12;;;;;;;18.10;9.25;;;0.90;99.90;;;;;;5071770;28;20161;-68
2022/02/16 05:51:38;;;;;;;17.33;9.38;;;0.80;99.90;;;;;;5071823;28;20212;-68
2022/02/16 05:54:05;;;;;;;15.02;9.27;;;0.70;99.90;;;;;;5071680;28;20240;-68
2022/02/16 05:56:32;;;;;;;13.48;8.57;;;0.80;99.90;;;;;;5071302;28;20189;-68
2022/02/16 05:58:58;;;;;;;16.23;8.50;;;0.90;99.90;;;;;;5071592;28;20163;-67
2022/02/16 06:01:24;;;;;;;14.82;8.85;;;0.90;99.90;;;;;;5071130;28;20157;-67
2022/02/16 06:03:50;;;;;;;12.98;8.48;;;0.80;99.90;;;;;;5071144;28;20212;-68
2022/02/16 06:06:18;;;;;;;21.55;12.40;;;0.70;99.90;;;;;;5071357;28;20167;-68
2022/02/16 06:08:45;;;;;;;22.13;11.48;;;0.80;99.90;;;;;;5071065;28;20230;-67
2022/02/16 06:11:11;;;;;;;26.65;14.07;;;1.00;99.90;;;;;;5071154;28;20239;-67
2022/02/16 06:13:38;;;;;;;37.08;15.13;;;1.10;99.90;;;;;;5071286;28;20157;-68
2022/02/16 06:16:04;;;;;;;41.42;14.35;;;1.20;99.90;;;;;;5071077;28;20208;-68
2022/02/16 06:18:31;;;;;;;27.17;14.68;;;1.20;99.90;;;;;;5069629;28;20176;-68
2022/02/16 06:20:57;;;;;;;23.92;14.88;;;1.30;99.90;;;;;;5071015;28;20153;-68
2022/02/16 06:23:23;;;;;;;33.33;14.52;;;1.30;99.90;;;;;;5070594;28;20192;-68
2022/02/16 06:25:49;;;;;;;25.88;13.15;;;1.30;99.90;;;;;;5070893;28;20157;-68
2022/02/16 06:28:15;;;;;;;37.90;13.70;;;1.40;99.90;;;;;;5070917;28;20214;-68
2022/02/16 06:30:41;;;;;;;29.20;13.88;;;1.40;99.90;;;;;;5069406;28;20173;-68
2022/02/16 06:33:07;;;;;;;23.05;14.05;;;1.50;99.90;;;;;;5070698;28;20508;-68
2022/02/16 06:35:34;;;;;;;20.00;11.77;;;1.50;99.90;;;;;;5070671;28;20561;-68
2022/02/16 06:38:00;;;;;;;25.58;14.82;;;1.60;99.90;;;;;;5070792;28;20153;-68
2022/02/16 06:40:27;;;;;;;23.60;13.60;;;1.60;99.90;;;;;;5070635;28;20182;-68
2022/02/16 06:42:54;;;;;;;20.52;14.10;;;1.60;99.90;;;;;;5070045;28;20242;-68
2022/02/16 06:45:21;;;;;;;17.75;11.77;;;1.70;99.90;;;;;;5070565;28;20160;-68
2022/02/16 06:47:46;;;;;;;23.33;13.38;;;1.80;99.90;;;;;;5070525;28;20240;-68
2022/02/16 06:50:12;;;;;;;30.90;14.20;;;1.90;99.90;;;;;;5070461;28;20165;-68
2022/02/16 06:52:39;;;;;;;23.95;14.23;;;2.10;99.90;;;;;;5070320;28;20197;-68
2022/02/16 06:55:05;;;;;;;21.73;14.13;;;2.20;99.90;;;;;;5070193;28;20689;-68
2022/02/16 06:57:31;;;;;;;24.73;14.60;;;2.30;99.90;;;;;;5070361;28;20168;-68
2022/02/16 06:59:57;;;;;;;29.10;14.50;;;2.40;99.90;;;;;;5070322;28;20153;-68
2022/02/16 07:02:23;;;;;;;27.95;15.85;;;2.60;99.90;;;;;;5069813;28;20310;-68
2022/02/16 07:04:49;;;;;;;29.10;15.70;;;2.80;99.90;;;;;;5070401;28;20177;-68
2022/02/16 07:07:15;;;;;;;34.72;16.30;;;2.90;99.90;;;;;;5070217;28;20228;-68
2022/02/16 07:09:40;;;;;;;32.30;18.83;;;3.10;99.90;;;;;;5070210;28;20538;-68
2022/02/16 07:12:07;;;;;;;28.30;18.33;;;3.10;99.90;;;;;;5070127;28;20189;-68
2022/02/16 07:14:33;;;;;;;32.17;17.10;;;3.10;99.90;;;;;;5069876;28;20169;-68
2022/02/16 07:16:59;;;;;;;30.88;18.92;;;3.10;99.90;;;;;;5069910;28;20159;-69
2022/02/16 07:19:26;;;;;;;29.85;15.55;;;3.20;99.90;;;;;;5069997;28;20188;-68
2022/02/16 07:21:53;;;;;;;30.00;15.32;;;3.10;99.90;;;;;;5069895;28;20189;-68
2022/02/16 07:24:22;;;;;;;27.00;14.60;;;3.30;99.90;;;;;;5069638;28;20164;-68
2022/02/16 07:26:48;;;;;;;38.65;16.17;;;3.60;99.90;;;;;;5069938;28;20163;-69
2022/02/16 07:29:14;;;;;;;34.92;14.38;;;3.70;99.90;;;;;;5069740;28;20188;-68
2022/02/16 07:31:40;;;;;;;33.88;15.80;;;3.80;99.90;;;;;;5069552;28;20622;-68
2022/02/16 07:34:07;;;;;;;37.20;16.63;;;3.70;99.90;;;;;;5069262;28;20160;-68
2022/02/16 07:36:33;;;;;;;35.22;16.30;;;3.50;99.90;;;;;;5068269;28;20226;-68
2022/02/16 07:39:01;;;;;;;43.70;17.25;;;3.60;99.90;;;;;;5069652;28;20158;-69
2022/02/16 07:41:28;;;;;;;32.10;16.40;;;3.80;99.90;;;;;;5069472;28;20184;-68
2022/02/16 07:43:54;;;;;;;36.00;15.45;;;3.90;99.90;;;;;;5069367;28;20161;-69
2022/02/16 07:46:20;;;;;;;30.38;15.73;;;4.10;99.90;;;;;;5069262;28;20165;-68
2022/02/16 07:48:46;;;;;;;37.15;15.50;;;4.20;99.90;;;;;;5069484;28;20164;-68
2022/02/16 07:51:12;;;;;;;45.45;17.33;;;4.20;99.90;;;;;;5069453;28;20167;-68
2022/02/16 07:53:38;;;;;;;46.92;17.00;;;4.50;99.90;;;;;;5069069;28;20176;-68
2022/02/16 07:56:06;;;;;;;45.45;17.95;;;4.70;99.90;;;;;;5068594;28;20200;-68
2022/02/16 07:58:32;;;;;;;39.15;17.63;;;5.00;99.90;;;;;;5069372;28;20164;-68
2022/02/16 08:00:58;;;;;;;44.15;18.27;;;5.20;99.90;;;;;;5069268;28;20164;-69
2022/02/16 08:03:24;;;;;;;52.72;17.75;;;5.40;99.90;;;;;;5069013;28;20236;-68
2022/02/16 08:05:50;;;;;;;56.10;19.50;;;5.30;99.90;;;;;;5068994;28;20199;-69
2022/02/16 08:08:16;;;;;;;56.72;18.63;;;5.30;99.90;;;;;;5069192;28;20157;-68
2022/02/16 08:10:42;;;;;;;141.90;25.83;;;5.40;99.90;;;;;;5069039;28;20175;-69
2022/02/16 08:13:08;;;;;;;60.88;20.08;;;5.50;99.90;;;;;;5068982;28;20541;-69
2022/02/16 08:15:36;;;;;;;58.50;19.27;;;5.50;99.90;;;;;;5067374;28;20207;-68
2022/02/16 08:18:03;;;;;;;48.83;19.85;;;5.60;99.90;;;;;;5068427;28;20157;-69
2022/02/16 08:20:29;;;;;;;53.30;20.25;;;5.70;99.90;;;;;;5067737;28;20190;-69
2022/02/16 08:22:55;;;;;;;64.82;21.70;;;5.70;99.90;;;;;;5068639;28;20251;-68
2022/02/16 08:25:20;;;;;;;53.50;22.42;;;5.80;99.90;;;;;;5092537;28;20225;-69
2022/02/16 08:27:46;;;;;;;56.92;21.20;;;6.00;99.90;;;;;;5105543;28;20170;-69
2022/02/16 08:30:14;;;;;;;63.38;22.05;;;6.00;99.90;;;;;;5092778;28;20176;-69
2022/02/16 08:32:40;;;;;;;59.38;19.58;;;6.20;99.90;;;;;;5101082;28;20164;-69
2022/02/16 08:35:09;;;;;;;53.58;19.25;;;5.60;99.90;;;;;;5088834;28;20222;-69
2022/02/16 08:37:35;;;;;;;43.95;18.23;;;5.20;99.90;;;;;;5088950;28;20156;-69
2022/02/16 08:40:03;;;;;;;45.70;20.17;;;5.20;99.90;;;;;;5088899;28;20163;-68
2022/02/16 08:42:29;;;;;;;57.78;20.98;;;5.20;99.90;;;;;;5088965;28;20231;-68
2022/02/16 08:44:58;;;;;;;46.67;19.73;;;4.90;99.90;;;;;;5088783;28;20197;-69
2022/02/16 08:47:25;;;;;;;57.22;20.40;;;5.10;99.90;;;;;;5086924;28;20206;-69
2022/02/16 08:49:51;;;;;;;53.13;22.52;;;5.50;99.90;;;;;;5088443;28;20167;-69
2022/02/16 08:52:17;;;;;;;65.63;22.38;;;5.90;99.90;;;;;;5088709;28;20255;-69
2022/02/16 08:54:43;;;;;;;59.30;22.95;;;5.90;99.90;;;;;;5088322;28;20191;-69
2022/02/16 08:57:09;;;;;;;67.47;24.08;;;5.70;99.90;;;;;;5088523;28;20183;-69
2022/02/16 08:59:35;;;;;;;62.08;21.50;;;5.50;99.90;;;;;;5088661;28;20164;-69
2022/02/16 09:02:01;;;;;;;67.38;23.90;;;5.30;99.90;;;;;;5088263;28;20156;-69
2022/02/16 09:04:27;;;;;;;70.80;22.63;;;5.30;99.90;;;;;;5088394;28;20191;-69
2022/02/16 09:09:40;;;;;;;56.20;21.08;;;5.60;99.90;;;;;;5092345;28;20154;-71
2022/02/16 09:12:06;;;;;;;59.97;21.73;;;5.80;99.90;;;;;;5092328;28;20159;-71
2022/02/16 09:14:33;;;;;;;59.30;21.23;;;5.80;99.90;;;;;;5091953;28;20215;-71
2022/02/16 09:16:59;;;;;;;61.80;22.25;;;5.70;99.90;;;;;;5092030;28;20165;-71
2022/02/16 09:19:25;;;;;;;52.15;20.90;;;5.20;99.90;;;;;;5092183;28;20216;-71
2022/02/16 09:21:52;;;;;;;47.60;18.83;;;5.20;99.90;;;;;;5092263;28;20202;-70
2022/02/16 09:24:18;;;;;;;50.60;18.73;;;5.00;99.90;;;;;;5091928;28;20154;-71
2022/02/16 09:26:49;;;;;;;51.88;19.50;;;4.90;99.90;;;;;;5074968;28;20200;-69
2022/02/16 09:29:21;;;;;;;51.95;20.95;;;5.10;99.90;;;;;;5071855;28;20606;-68
2022/02/16 09:31:49;;;;;;;44.83;20.13;;;5.00;99.90;;;;;;5071657;28;20167;-69
2022/02/16 09:34:16;;;;;;;55.05;20.98;;;5.10;99.90;;;;;;5072012;28;20202;-69
2022/02/16 09:36:42;;;;;;;50.63;19.77;;;5.10;99.90;;;;;;5071571;28;20268;-69
2022/02/16 09:39:08;;;;;;;52.28;18.52;;;4.80;99.90;;;;;;5071759;28;20164;-71
2022/02/16 09:41:35;;;;;;;55.80;19.45;;;4.60;99.90;;;;;;5070439;28;20184;-68
2022/02/16 09:44:02;;;;;;;50.35;20.25;;;4.60;99.90;;;;;;5077886;28;20185;-68
2022/02/16 09:46:28;;;;;;;56.00;21.52;;;4.90;99.90;;;;;;5071569;28;20219;-68
2022/02/16 09:48:57;;;;;;;49.53;20.83;;;5.00;99.90;;;;;;5071386;28;20189;-68
2022/02/16 09:51:24;;;;;;;56.65;19.90;;;5.00;99.90;;;;;;5071617;28;20161;-68
2022/02/16 09:53:51;;;;;;;58.72;21.67;;;5.40;99.90;;;;;;5070230;28;20219;-68
2022/02/16 09:56:17;;;;;;;47.85;20.85;;;5.60;99.90;;;;;;5071291;28;20192;-68
2022/02/16 09:58:43;;;;;;;61.08;20.00;;;5.60;99.90;;;;;;5071377;28;20165;-68
2022/02/16 10:01:13;;;;;;;45.72;18.83;;;5.30;99.90;;;;;;5071296;28;20182;-68
2022/02/16 10:03:58;;;;;;;48.78;19.67;;;5.30;99.90;;;;;;5073192;28;20297;-67
2022/02/16 10:06:38;;;;;;;37.35;17.95;;;5.70;99.90;;;;;;5087801;28;20186;-68
2022/02/16 10:09:05;;;;;;;44.80;18.05;;;5.90;99.90;;;;;;5088735;28;20167;-68
2022/02/16 10:11:32;;;;;;;43.15;17.40;;;5.60;99.90;;;;;;5089843;28;20164;-68
2022/02/16 10:14:22;;;;;;;44.40;17.55;;;5.70;99.90;;;;;;5090119;28;20212;-67
2022/02/16 10:16:48;;;;;;;41.67;16.08;;;5.50;99.90;;;;;;5089306;28;20219;-69
2022/02/16 10:19:14;;;;;;;42.90;17.77;;;5.30;99.90;;;;;;5089148;28;20165;-68
2022/02/16 10:22:05;;;;;;;49.05;17.08;;;5.00;99.90;;;;;;5071357;28;20210;-73
2022/02/16 10:24:32;;;;;;;46.95;18.30;;;5.50;99.90;;;;;;5087929;28;20195;-72
2022/02/16 10:26:58;;;;;;;46.10;17.52;;;5.60;99.90;;;;;;5087857;28;20206;-69
2022/02/16 10:29:29;;;;;;;41.15;18.00;;;5.80;99.90;;;;;;5083787;28;20206;-68
2022/02/16 10:31:57;;;;;;;54.03;20.38;;;5.90;99.90;;;;;;5070599;28;20177;-67
2022/02/16 10:34:42;;;;;;;56.25;18.85;;;6.20;99.90;;;;;;5071114;28;20176;-73
2022/02/16 10:37:10;;;;;;;47.75;18.98;;;6.40;99.90;;;;;;5070477;28;20279;-68
2022/02/16 10:39:36;;;;;;;54.38;20.60;;;6.70;99.90;;;;;;5076935;28;20172;-73
2022/02/16 10:42:02;;;;;;;56.13;20.10;;;6.80;99.90;;;;;;5073085;28;20529;-73
2022/02/16 10:44:31;;;;;;;52.78;20.42;;;6.60;99.90;;;;;;5075339;28;20227;-68
2022/02/16 10:47:04;;;;;;;76.07;28.05;;;6.90;99.90;;;;;;5085346;28;20279;-68
2022/02/16 10:49:32;;;;;;;133.18;41.83;;;7.90;99.90;;;;;;5088947;28;20440;-74
2022/02/16 10:52:03;;;;;;;112.90;35.55;;;8.50;99.90;;;;;;5089321;28;20194;-74
2022/02/16 10:54:30;;;;;;;111.35;33.75;;;9.10;99.90;;;;;;5089133;28;20167;-73
2022/02/16 10:56:56;;;;;;;107.45;33.58;;;9.80;99.90;;;;;;5083126;28;20315;-74
2022/02/16 10:59:22;;;;;;;99.53;33.00;;;10.40;99.90;;;;;;5089075;28;20763;-73
2022/02/16 11:01:48;;;;;;;100.05;30.27;;;9.50;99.90;;;;;;5089244;28;20221;-73
2022/02/16 11:04:15;;;;;;;98.78;30.65;;;9.10;99.90;;;;;;5087495;28;20226;-73
2022/02/16 11:06:47;;;;;;;79.65;27.92;;;9.20;99.90;;;;;;5089126;28;20187;-73
2022/02/16 11:09:25;;;;;;;82.20;28.83;;;9.20;99.90;;;;;;5083847;28;20175;-73
2022/02/16 11:11:56;;;;;;;88.80;27.52;;;9.80;99.90;;;;;;5089248;28;20160;-73
2022/02/16 11:14:31;;;;;;;94.65;32.55;;;11.50;99.90;;;;;;5084832;28;20204;-73
2022/02/16 11:16:58;;;;;;;74.35;30.02;;;12.10;99.90;;;;;;5072658;28;20245;-73
2022/02/16 11:19:32;;;;;;;71.78;29.65;;;12.90;99.90;;;;;;5070029;28;20248;-73
2022/02/16 11:21:59;;;;;;;76.25;31.05;;;12.20;99.90;;;;;;5069828;28;20173;-73
2022/02/16 11:24:30;;;;;;;69.95;29.00;;;12.40;99.90;;;;;;5069810;28;20157;-73
2022/02/16 11:26:56;;;;;;;94.63;30.92;;;11.50;99.90;;;;;;5069280;28;20200;-73
2022/02/16 11:29:25;;;;;;;87.55;31.17;;;11.80;99.90;;;;;;5086424;28;20179;-73
2022/02/16 11:31:53;;;;;;;65.40;25.35;;;13.10;99.90;;;;;;5085173;28;20186;-73
2022/02/16 11:34:22;;;;;;;60.63;25.20;;;13.20;99.90;;;;;;5069805;28;20176;-73
2022/02/16 11:36:55;;;;;;;59.72;23.02;;;13.90;99.90;;;;;;5071395;28;20208;-73
2022/02/16 11:39:50;;;;;;;48.45;21.90;;;14.20;99.90;;;;;;5069543;28;20165;-73
2022/02/16 11:42:19;;;;;;;41.83;18.80;;;15.00;99.90;;;;;;5069121;28;20212;-73
2022/02/16 11:44:51;;;;;;;34.10;16.80;;;14.90;99.90;;;;;;5069534;28;20176;-73
2022/02/16 11:47:39;;;;;;;29.70;14.57;;;14.70;99.90;;;;;;5069655;28;20153;-73
2022/02/16 11:50:14;;;;;;;26.65;11.43;;;14.90;99.90;;;;;;5069567;28;20199;-73
2022/02/16 11:52:52;;;;;;;16.25;10.02;;;14.60;99.90;;;;;;5069362;28;20247;-73
2022/02/16 11:55:47;;;;;;;15.13;9.75;;;15.30;99.90;;;;;;5069128;28;20256;-73
2022/02/16 11:58:23;;;;;;;12.65;7.25;;;15.40;99.90;;;;;;5069030;28;20232;-72
2022/02/16 12:00:58;;;;;;;8.80;6.20;;;15.50;99.90;;;;;;5074806;28;20579;-73
2022/02/16 12:03:32;;;;;;;27.63;8.77;;;15.40;99.90;;;;;;5087493;28;20219;-73
2022/02/16 12:06:10;;;;;;;9.95;5.45;;;15.60;99.90;;;;;;5073871;28;20179;-73
2022/02/16 12:08:47;;;;;;;13.00;6.30;;;15.80;99.90;;;;;;5068214;28;20212;-73
2022/02/16 12:11:20;;;;;;;15.07;5.43;;;16.00;99.90;;;;;;5066869;28;20203;-73
2022/02/16 12:13:54;;;;;;;12.85;4.65;;;15.90;99.90;;;;;;5068805;28;20149;-73
2022/02/16 12:16:35;;;;;;;9.30;4.13;;;15.20;99.90;;;;;;5080069;28;20200;-73
2022/02/16 12:19:05;;;;;;;6.85;4.20;;;16.00;99.90;;;;;;5069025;28;20173;-73
2022/02/16 12:21:41;;;;;;;5.75;3.63;;;15.20;99.90;;;;;;5088872;28;20242;-73
2022/02/16 12:24:17;;;;;;;11.70;3.95;;;14.90;99.90;;;;;;5087639;28;20164;-73
2022/02/16 12:26:49;;;;;;;4.72;2.45;;;14.80;99.90;;;;;;5089118;28;20155;-73
2022/02/16 12:29:29;;;;;;;4.70;2.90;;;14.30;99.90;;;;;;5088889;28;20624;-72
2022/02/16 12:31:57;;;;;;;5.38;3.70;;;13.80;99.90;;;;;;5088628;28;20195;-72
2022/02/16 12:34:26;;;;;;;4.65;3.22;;;13.50;99.90;;;;;;5088878;28;20160;-72
2022/02/16 12:36:56;;;;;;;5.93;3.20;;;13.50;99.90;;;;;;5070476;28;20284;-73
2022/02/16 12:39:22;;;;;;;4.60;2.88;;;14.30;99.90;;;;;;5068512;28;20252;-73
2022/02/16 12:41:49;;;;;;;4.28;2.70;;;13.50;99.90;;;;;;5071127;28;20184;-73